Time;durP1;ratioP1;P1;durP2;ratioP2;P2;SDS_P1;SDS_P2;PMS_P1;PMS_P2;Temp;Humidity;BMP_temperature;BMP_pressure;BME280_temperature;BME280_humidity;BME280_pressure;Samples;Min_cycle;Max_cycle;Signal;HPM_P1;HPM_P2
2022/12/28 00:00:00;;;;;;;9.00;4.70;;;;;;;-145.18;100.00;46722.91;5031424;28;20065;-72
2022/12/28 00:02:25;;;;;;;11.80;4.40;;;;;;;-145.18;100.00;46720.94;5030770;28;20033;-71
2022/12/28 00:04:50;;;;;;;15.40;4.70;;;;;;;-145.18;100.00;46722.91;5031544;28;20136;-72
2022/12/28 00:07:16;;;;;;;11.90;5.00;;;;;;;-145.18;100.00;46724.84;5013340;28;20037;-72
2022/12/28 00:09:41;;;;;;;19.60;5.60;;;;;;;-145.18;100.00;46720.94;5031196;28;20042;-72
2022/12/28 00:12:07;;;;;;;14.23;5.03;;;;;;;-145.18;100.00;46722.91;5031113;28;20032;-72
2022/12/28 00:14:32;;;;;;;16.93;6.50;;;;;;;-145.18;100.00;46722.91;5031142;28;20581;-72
2022/12/28 00:16:57;;;;;;;18.70;5.53;;;;;;;-145.18;100.00;46722.91;5012995;28;20552;-72
2022/12/28 00:19:23;;;;;;;8.80;5.23;;;;;;;-145.18;100.00;46722.91;5031289;28;20056;-72
2022/12/28 00:21:48;;;;;;;8.57;4.47;;;;;;;-145.18;100.00;46720.94;4991685;28;20137;-72
2022/12/28 00:24:18;;;;;;;12.70;5.63;;;;;;;-145.18;100.00;46724.84;5030755;28;20045;-72
2022/12/28 00:26:43;;;;;;;12.70;4.50;;;;;;;-145.18;100.00;46719.00;5030878;28;20030;-72
2022/12/28 00:29:10;;;;;;;10.20;4.93;;;;;;;-145.18;100.00;46726.81;5030784;28;20317;-72
2022/12/28 00:31:36;;;;;;;11.60;4.67;;;;;;;-145.18;100.00;46724.84;5028494;28;20081;-72
2022/12/28 00:34:02;;;;;;;11.93;4.83;;;;;;;-145.18;100.00;46722.91;5030646;28;20286;-72
2022/12/28 00:36:29;;;;;;;11.27;5.17;;;;;;;-145.18;100.00;46724.84;5030736;28;20116;-72
2022/12/28 00:38:54;;;;;;;10.80;5.33;;;;;;;-145.18;100.00;46726.81;5030579;28;20271;-72
2022/12/28 00:41:19;;;;;;;16.03;6.07;;;;;;;-145.18;100.00;46724.84;5030522;28;20376;-72
2022/12/28 00:43:45;;;;;;;12.23;4.97;;;;;;;-145.18;100.00;46726.81;5030575;28;20035;-72
2022/12/28 00:46:10;;;;;;;9.60;5.23;;;;;;;-145.18;100.00;46720.94;5030338;28;20108;-72
2022/12/28 00:48:36;;;;;;;12.37;5.77;;;;;;;-145.18;100.00;46726.81;5030599;28;20083;-72
2022/12/28 00:51:04;;;;;;;12.20;5.20;;;;;;;-145.18;100.00;46726.81;5030307;28;20029;-72
2022/12/28 00:53:30;;;;;;;13.90;6.63;;;;;;;-145.18;100.00;46720.94;5030647;28;20537;-72
2022/12/28 00:56:07;;;;;;;12.13;5.87;;;;;;;-145.18;100.00;46726.81;5030427;28;20259;-72
2022/12/28 00:58:32;;;;;;;13.90;5.30;;;;;;;-145.18;100.00;46722.91;5030516;28;20120;-71
2022/12/28 01:00:58;;;;;;;9.93;5.37;;;;;;;-145.18;100.00;46728.75;5012286;28;20361;-72
2022/12/28 01:03:23;;;;;;;12.07;5.47;;;;;;;-145.18;100.00;46728.75;5009809;28;20069;-72
2022/12/28 01:05:49;;;;;;;12.17;5.67;;;;;;;-145.18;100.00;46724.84;5030235;28;20064;-72
2022/12/28 01:08:14;;;;;;;12.93;6.00;;;;;;;-145.18;100.00;46728.75;5029711;28;20443;-72
2022/12/28 01:10:40;;;;;;;12.73;5.17;;;;;;;-145.18;100.00;46726.81;5030316;28;20069;-72
2022/12/28 01:13:05;;;;;;;13.70;4.90;;;;;;;-145.18;100.00;46724.84;5029510;28;20037;-72
2022/12/28 01:15:30;;;;;;;19.43;7.17;;;;;;;-145.18;100.00;46732.66;5012360;28;20092;-71
2022/12/28 01:17:56;;;;;;;15.37;5.80;;;;;;;-145.18;100.00;46726.81;5029582;28;20083;-72
2022/12/28 01:20:21;;;;;;;7.83;4.30;;;;;;;-145.18;100.00;46728.75;5029999;28;20418;-72
2022/12/28 01:22:46;;;;;;;11.83;4.93;;;;;;;-145.18;100.00;46726.81;5029886;28;20086;-72
2022/12/28 01:25:12;;;;;;;10.30;5.40;;;;;;;-145.18;100.00;46722.91;5029838;28;20029;-72
2022/12/28 01:27:38;;;;;;;13.80;5.03;;;;;;;-145.18;100.00;46726.81;5029578;28;20036;-72
2022/12/28 01:30:05;;;;;;;10.87;5.87;;;;;;;-145.18;100.00;46726.81;5029823;28;20087;-72
2022/12/28 01:32:30;;;;;;;9.47;4.97;;;;;;;-145.18;100.00;46724.84;5026541;28;20038;-72
2022/12/28 01:34:55;;;;;;;12.80;5.40;;;;;;;-145.18;100.00;46724.84;5029606;28;20314;-72
2022/12/28 01:37:21;;;;;;;13.33;5.37;;;;;;;-145.18;100.00;46726.81;5029664;28;20033;-72
2022/12/28 01:39:46;;;;;;;13.03;5.23;;;;;;;-145.18;100.00;46726.81;5024963;28;20033;-72
2022/12/28 01:42:15;;;;;;;9.57;5.70;;;;;;;-145.18;100.00;46726.81;5028852;28;20040;-72
2022/12/28 01:44:44;;;;;;;14.90;5.60;;;;;;;-145.18;100.00;46728.75;5026832;28;20041;-72
2022/12/28 01:47:13;;;;;;;11.53;5.60;;;;;;;-145.18;100.00;46728.75;5029265;28;20282;-72
2022/12/28 01:50:11;;;;;;;12.53;6.23;;;;;;;-145.18;100.00;46728.75;5029240;28;20333;-72
2022/12/28 01:52:47;;;;;;;10.67;5.27;;;;;;;-145.18;100.00;46726.81;5024700;28;20293;-72
2022/12/28 01:55:23;;;;;;;10.37;6.27;;;;;;;-145.18;100.00;46724.84;5029010;28;20287;-73
2022/12/28 01:58:10;;;;;;;10.95;4.75;;;;;;;-145.18;100.00;46726.81;5029240;28;20846;-72
2022/12/28 02:00:36;;;;;;;11.30;5.57;;;;;;;-145.18;100.00;46732.66;5028134;28;20033;-72
2022/12/28 02:03:09;;;;;;;13.17;5.53;;;;;;;-145.18;100.00;46722.91;5028300;28;20751;-72
2022/12/28 02:05:40;;;;;;;8.97;4.80;;;;;;;-145.18;100.00;46724.84;5025939;28;20033;-72
2022/12/28 02:08:25;;;;;;;10.07;6.00;;;;;;;-145.18;100.00;46722.91;5028778;28;20270;-73
2022/12/28 02:10:51;;;;;;;8.87;5.27;;;;;;;-145.18;100.00;46720.94;5027183;28;20362;-72
2022/12/28 02:13:18;;;;;;;8.63;5.47;;;;;;;-145.18;100.00;46720.94;5010497;28;20727;-73
2022/12/28 02:15:44;;;;;;;11.83;6.47;;;;;;;-145.18;100.00;46719.00;5029327;28;20370;-72
2022/12/28 02:18:12;;;;;;;14.30;7.03;;;;;;;-145.18;100.00;46720.94;5028367;28;20779;-72
2022/12/28 02:20:55;;;;;;;9.30;5.67;;;;;;;-145.18;100.00;46719.00;5028911;28;20277;-72
2022/12/28 02:23:49;;;;;;;12.47;6.33;;;;;;;-145.18;100.00;46722.91;5028366;28;20775;-72
2022/12/28 02:26:32;;;;;;;17.67;6.93;;;;;;;-145.18;100.00;46715.09;5027949;28;20367;-72
2022/12/28 02:29:16;;;;;;;10.07;6.07;;;;;;;-145.18;100.00;46709.22;5028287;28;20344;-72
2022/12/28 02:32:18;;;;;;;15.27;7.40;;;;;;;-145.18;100.00;46713.13;5028770;28;20743;-72
2022/12/28 02:34:56;;;;;;;13.73;7.43;;;;;;;-145.18;100.00;46707.28;5028490;28;20294;-72
2022/12/28 02:37:26;;;;;;;14.80;8.17;;;;;;;-145.18;100.00;46707.28;5028728;28;20354;-72
2022/12/28 02:39:57;;;;;;;11.97;7.67;;;;;;;-145.18;100.00;46709.22;5026451;28;20298;-72
2022/12/28 02:42:25;;;;;;;16.20;7.70;;;;;;;-145.18;100.00;46711.19;5028449;28;20325;-72
2022/12/28 02:50:21;;;;;;;12.90;8.03;;;;;;;-145.18;100.00;46711.19;5032435;28;20273;-72
2022/12/28 02:53:04;;;;;;;13.27;8.20;;;;;;;-145.18;100.00;46699.47;5032300;28;20373;-72
2022/12/28 02:56:18;;;;;;;16.50;9.07;;;;;;;-145.18;100.00;46705.31;5014828;28;20721;-72
2022/12/28 02:58:24;;;;;;;13.53;8.60;;;;;;;-145.18;100.00;46709.22;5021320;28;20270;-72
2022/12/28 03:03:24;;;;;;;13.60;9.13;;;;;;;-145.18;100.00;46697.50;4294900;22;20438;-72
2022/12/28 03:08:49;;;;;;;13.13;8.67;;;;;;;-145.18;100.00;46701.41;5029281;28;20096;-72
2022/12/28 03:11:18;;;;;;;13.10;8.70;;;;;;;-145.18;100.00;46701.41;5033510;28;20296;-72
2022/12/28 03:13:43;;;;;;;15.57;8.20;;;;;;;-145.18;100.00;46695.56;5032551;28;20347;-73
2022/12/28 03:16:23;;;;;;;13.63;9.30;;;;;;;-145.18;100.00;46697.50;5013754;28;20263;-72
2022/12/28 03:32:57;;;;;;;10.90;8.13;;;;;;;-145.18;100.00;46699.47;5032858;28;20119;-73
2022/12/28 03:35:35;;;;;;;12.20;8.03;;;;;;;-145.18;100.00;46695.56;5032880;28;20274;-72
2022/12/28 03:38:02;;;;;;;10.33;6.57;;;;;;;-145.18;100.00;46709.22;5032902;28;20266;-73
2022/12/28 03:40:47;;;;;;;10.80;6.80;;;;;;;-145.18;100.00;46701.41;5033027;28;20635;-72
2022/12/28 03:43:41;;;;;;;12.93;7.80;;;;;;;-145.18;100.00;46711.19;5032877;28;20351;-73
2022/12/28 03:46:15;;;;;;;11.00;7.87;;;;;;;-145.18;100.00;46703.38;5032719;28;20271;-72
2022/12/28 03:48:42;;;;;;;9.00;7.40;;;;;;;-145.18;100.00;46707.28;5033019;28;20262;-71
2022/12/28 03:51:08;;;;;;;10.87;7.40;;;;;;;-145.18;100.00;46703.38;5032524;28;20793;-70
2022/12/28 03:53:39;;;;;;;13.00;7.50;;;;;;;-145.18;100.00;46705.31;5032575;28;20329;-71
2022/12/28 03:56:09;;;;;;;10.43;6.90;;;;;;;-145.18;100.00;46717.03;5012207;28;20025;-72
2022/12/28 03:58:35;;;;;;;14.10;7.40;;;;;;;-145.18;100.00;46715.09;5012919;28;20294;-73
2022/12/28 04:01:00;;;;;;;11.13;7.47;;;;;;;-145.18;100.00;46717.03;5026022;28;21045;-73
2022/12/28 04:03:25;;;;;;;15.33;7.43;;;;;;;-145.18;100.00;46707.28;5014160;28;20108;-73
2022/12/28 04:05:51;;;;;;;11.23;7.87;;;;;;;-145.18;100.00;46715.09;5012600;28;20029;-72
2022/12/28 04:08:16;;;;;;;10.73;7.87;;;;;;;-145.18;100.00;46717.03;5012609;28;20084;-73
2022/12/28 04:10:41;;;;;;;10.83;6.73;;;;;;;-145.18;100.00;46713.13;5012740;28;20040;-73
2022/12/28 04:13:07;;;;;;;10.00;7.03;;;;;;;-145.18;100.00;46711.19;5012264;28;20061;-73
2022/12/28 04:15:32;;;;;;;10.40;6.73;;;;;;;-145.18;100.00;46713.13;5012796;28;20057;-72
2022/12/28 04:18:00;;;;;;;12.80;7.67;;;;;;;-145.18;100.00;46717.03;5012153;28;20450;-73
2022/12/28 04:20:25;;;;;;;12.57;7.77;;;;;;;-145.18;100.00;46715.09;5012565;28;20026;-72
2022/12/28 04:22:50;;;;;;;15.67;8.80;;;;;;;-145.18;100.00;46703.38;5012195;28;20282;-71
2022/12/28 04:25:16;;;;;;;9.57;7.30;;;;;;;-145.18;100.00;46717.03;4998448;28;20022;-73
2022/12/28 04:27:41;;;;;;;9.90;7.10;;;;;;;-145.18;100.00;46707.28;5032089;28;20537;-71
2022/12/28 04:30:07;;;;;;;11.47;7.13;;;;;;;-145.18;100.00;46719.00;5031513;28;20026;-70
2022/12/28 04:32:33;;;;;;;9.20;6.43;;;;;;;-145.18;100.00;46719.00;5032219;28;20556;-71
2022/12/28 04:34:58;;;;;;;14.57;7.10;;;;;;;-145.18;100.00;46719.00;5032003;28;20303;-71
2022/12/28 04:37:23;;;;;;;8.87;5.97;;;;;;;-145.18;100.00;46719.00;5031691;28;20390;-73
2022/12/28 04:39:49;;;;;;;9.43;5.97;;;;;;;-145.18;100.00;46720.94;5031892;28;20116;-73
2022/12/28 04:42:14;;;;;;;10.67;5.73;;;;;;;-145.18;100.00;46719.00;5032214;28;20144;-72
2022/12/28 04:44:39;;;;;;;11.80;6.70;;;;;;;-145.18;100.00;46720.94;5031952;28;20041;-72
2022/12/28 04:47:05;;;;;;;16.30;6.23;;;;;;;-145.18;100.00;46717.03;5013845;28;20037;-71
2022/12/28 04:49:30;;;;;;;7.87;5.27;;;;;;;-145.18;100.00;46715.09;5031566;28;20563;-70
2022/12/28 04:51:55;;;;;;;10.27;5.43;;;;;;;-145.18;100.00;46719.00;5031268;28;20041;-70
2022/12/28 04:54:21;;;;;;;12.67;5.30;;;;;;;-145.18;100.00;46719.00;5031452;28;20128;-72
2022/12/28 04:56:46;;;;;;;11.63;4.60;;;;;;;-145.18;100.00;46720.94;5031697;28;20060;-72
2022/12/28 04:59:11;;;;;;;10.87;5.00;;;;;;;-145.18;100.00;46719.00;5031663;28;20477;-73
2022/12/28 05:01:37;;;;;;;8.87;4.30;;;;;;;-145.18;100.00;46719.00;5031422;28;20121;-71
2022/12/28 05:04:02;;;;;;;7.23;4.60;;;;;;;-145.18;100.00;46724.84;5031206;28;20053;-71
2022/12/28 05:06:28;;;;;;;9.33;5.00;;;;;;;-145.18;100.00;46719.00;5013398;28;20065;-71
2022/12/28 05:08:55;;;;;;;8.40;4.77;;;;;;;-145.18;100.00;46722.91;5030911;28;20072;-73
2022/12/28 05:11:23;;;;;;;6.70;4.47;;;;;;;-145.18;100.00;46719.00;5031254;28;20120;-73
2022/12/28 05:13:48;;;;;;;9.90;4.60;;;;;;;-145.18;100.00;46722.91;5030843;28;20289;-73
2022/12/28 05:16:16;;;;;;;9.27;4.30;;;;;;;-145.18;100.00;46722.91;5031645;28;20270;-71
2022/12/28 05:18:41;;;;;;;7.00;3.13;;;;;;;-145.18;100.00;46719.00;5030877;28;20041;-71
2022/12/28 05:21:10;;;;;;;9.27;4.13;;;;;;;-145.18;100.00;46722.91;5031083;28;20259;-71
2022/12/28 05:23:37;;;;;;;7.43;3.97;;;;;;;-145.18;100.00;46722.91;5031083;28;20099;-71
2022/12/28 05:26:04;;;;;;;6.90;3.80;;;;;;;-145.18;100.00;46720.94;5030536;28;20702;-72
2022/12/28 15:18:16;;;;;;;9.03;2.27;;;;;;;-145.18;100.00;46734.63;6104812;23;1287240;-72
2022/12/28 15:20:42;;;;;;;11.57;1.73;;;;;;;-145.18;100.00;46738.53;6152716;23;20076;-72
2022/12/28 15:23:07;;;;;;;6.90;2.07;;;;;;;-145.18;100.00;46734.63;6152975;23;20006;-73
2022/12/28 15:25:33;;;;;;;8.57;1.73;;;;;;;-145.18;100.00;46734.63;6152553;23;20022;-72
2022/12/28 15:27:58;;;;;;;7.23;1.67;;;;;;;-145.18;100.00;46734.63;6153019;23;20013;-73
2022/12/28 15:30:24;;;;;;;7.23;1.60;;;;;;;-145.18;100.00;46742.44;6152979;23;20080;-72
2022/12/28 15:32:49;;;;;;;10.00;1.87;;;;;;;-145.18;100.00;46740.47;6152928;23;20431;-72
2022/12/28 15:35:14;;;;;;;7.00;2.13;;;;;;;-145.18;100.00;46736.56;6152561;23;20490;-73
2022/12/28 15:37:40;;;;;;;5.83;1.70;;;;;;;-145.18;100.00;46736.56;6153142;23;20040;-73
2022/12/28 15:40:06;;;;;;;13.37;2.40;;;;;;;-145.18;100.00;46738.53;6150939;23;20012;-73
2022/12/28 15:42:31;;;;;;;10.13;2.37;;;;;;;-145.18;100.00;46738.53;6152957;23;20028;-73
2022/12/28 15:44:57;;;;;;;9.97;1.97;;;;;;;-145.18;100.00;46734.63;6152280;23;20294;-73
2022/12/28 15:47:22;;;;;;;7.47;2.47;;;;;;;-145.18;100.00;46734.63;6152783;23;20093;-72
2022/12/28 15:49:48;;;;;;;6.43;2.10;;;;;;;-145.18;100.00;46734.63;6151982;23;20013;-72
2022/12/28 15:52:13;;;;;;;8.30;2.10;;;;;;;-145.18;100.00;46728.75;6152253;23;20427;-73
2022/12/28 15:54:39;;;;;;;8.50;2.27;;;;;;;-145.18;100.00;46726.81;6151967;23;20462;-73
2022/12/28 15:57:04;;;;;;;10.40;2.77;;;;;;;-145.18;100.00;46728.75;6150338;23;20041;-73
2022/12/28 15:59:29;;;;;;;8.20;2.00;;;;;;;-145.18;100.00;46728.75;6150308;23;20013;-72
2022/12/28 16:01:55;;;;;;;7.30;2.40;;;;;;;-145.18;100.00;46726.81;6150414;23;20029;-73
2022/12/28 16:04:20;;;;;;;6.20;2.53;;;;;;;-145.18;100.00;46728.75;6152374;23;20435;-73
2022/12/28 16:06:46;;;;;;;9.47;2.10;;;;;;;-145.18;100.00;46724.84;6152759;23;20005;-72
2022/12/28 16:09:13;;;;;;;8.13;2.27;;;;;;;-145.18;100.00;46720.94;6151650;23;20020;-73
2022/12/28 16:11:38;;;;;;;5.30;2.00;;;;;;;-145.18;100.00;46728.75;6150458;23;20029;-73
2022/12/28 16:14:05;;;;;;;9.70;2.17;;;;;;;-145.18;100.00;46722.91;6175801;23;20246;-72
2022/12/28 16:16:35;;;;;;;8.90;2.50;;;;;;;-145.18;100.00;46720.94;6156964;23;20009;-72
2022/12/28 16:19:01;;;;;;;11.40;2.60;;;;;;;-145.18;100.00;46722.91;6181956;23;20293;-73
2022/12/28 16:21:27;;;;;;;5.90;2.30;;;;;;;-145.18;100.00;46719.00;6181198;23;20613;-73
2022/12/28 16:23:53;;;;;;;7.43;2.77;;;;;;;-145.18;100.00;46719.00;6181929;23;20241;-72
2022/12/28 16:26:18;;;;;;;17.03;2.93;;;;;;;-145.18;100.00;46720.94;6182131;23;20227;-72
2022/12/28 16:28:44;;;;;;;7.67;2.53;;;;;;;-145.18;100.00;46719.00;6156185;23;20023;-72
2022/12/28 16:31:26;;;;;;;8.60;3.00;;;;;;;-145.18;100.00;46722.91;6181751;23;20009;-72
2022/12/28 16:33:58;;;;;;;7.30;2.67;;;;;;;-145.18;100.00;46720.94;6155152;23;20009;-73
2022/12/28 16:36:24;;;;;;;8.30;2.67;;;;;;;-145.18;100.00;46719.00;6181825;23;20235;-72
2022/12/28 16:38:50;;;;;;;8.07;2.70;;;;;;;-145.18;100.00;46719.00;6182045;23;20380;-73
2022/12/28 16:41:16;;;;;;;9.27;2.67;;;;;;;-145.18;100.00;46719.00;6182506;23;20242;-73
2022/12/28 16:43:42;;;;;;;12.23;2.93;;;;;;;-145.18;100.00;46719.00;6180817;23;20092;-73
2022/12/28 16:46:08;;;;;;;6.77;2.60;;;;;;;-145.18;100.00;46711.19;6181909;23;20266;-73
2022/12/28 16:48:34;;;;;;;5.53;2.37;;;;;;;-145.18;100.00;46720.94;6182132;23;20084;-73
2022/12/28 16:51:00;;;;;;;8.73;3.37;;;;;;;-145.18;100.00;46720.94;6182021;23;20015;-73
2022/12/28 16:53:27;;;;;;;6.57;3.17;;;;;;;-145.18;100.00;46717.03;6182511;23;20270;-73
2022/12/28 16:55:53;;;;;;;7.87;3.10;;;;;;;-145.18;100.00;46722.91;6180073;23;20012;-73
2022/12/28 16:58:18;;;;;;;6.03;2.30;;;;;;;-145.18;100.00;46720.94;6179411;23;20231;-73
2022/12/28 17:00:44;;;;;;;8.77;2.93;;;;;;;-145.18;100.00;46720.94;6181778;23;20058;-73
2022/12/28 17:03:10;;;;;;;6.87;3.00;;;;;;;-145.18;100.00;46720.94;6181874;23;20008;-73
2022/12/28 17:05:35;;;;;;;6.40;2.93;;;;;;;-145.18;100.00;46719.00;6181023;23;20009;-73
2022/12/28 17:08:02;;;;;;;11.97;3.20;;;;;;;-145.18;100.00;46717.03;6181908;23;20320;-72
2022/12/28 17:10:29;;;;;;;10.53;2.97;;;;;;;-145.18;100.00;46720.94;6181445;23;20015;-73
2022/12/28 17:12:54;;;;;;;5.53;2.63;;;;;;;-145.18;100.00;46717.03;6182150;23;20234;-73
2022/12/28 17:15:20;;;;;;;12.83;2.97;;;;;;;-145.18;100.00;46715.09;6181871;23;20689;-72
2022/12/28 17:17:45;;;;;;;4.73;2.60;;;;;;;-145.18;100.00;46719.00;6181820;23;20482;-73
2022/12/28 17:20:11;;;;;;;7.30;2.80;;;;;;;-145.18;100.00;46717.03;6181703;23;20020;-72
2022/12/28 17:22:36;;;;;;;7.97;2.90;;;;;;;-145.18;100.00;46715.09;6182342;23;20009;-72
2022/12/28 17:25:02;;;;;;;8.60;3.00;;;;;;;-145.18;100.00;46717.03;6181272;23;20009;-72
2022/12/28 17:27:28;;;;;;;10.13;3.60;;;;;;;-145.18;100.00;46715.09;6179472;23;20084;-73
2022/12/28 17:29:54;;;;;;;6.13;3.10;;;;;;;-145.18;100.00;46717.03;6181646;23;20457;-73
2022/12/28 17:32:19;;;;;;;5.67;2.57;;;;;;;-145.18;100.00;46713.13;6181732;23;20223;-73
2022/12/28 17:34:45;;;;;;;6.20;2.60;;;;;;;-145.18;100.00;46715.09;6181481;23;20001;-72
2022/12/28 17:37:10;;;;;;;4.13;2.37;;;;;;;-145.18;100.00;46715.09;6155639;23;20015;-72
2022/12/28 17:39:36;;;;;;;9.43;2.80;;;;;;;-145.18;100.00;46701.41;6154850;23;20009;-73
2022/12/28 17:42:02;;;;;;;6.03;3.00;;;;;;;-145.18;100.00;46717.03;6181715;23;20107;-72
2022/12/28 17:44:28;;;;;;;7.47;2.70;;;;;;;-145.18;100.00;46715.09;6181456;23;20223;-73
2022/12/28 17:46:53;;;;;;;7.60;2.60;;;;;;;-145.18;100.00;46713.13;6181577;23;20317;-73
2022/12/28 17:49:19;;;;;;;7.63;2.73;;;;;;;-145.18;100.00;46713.13;6182180;23;20032;-73
2022/12/28 17:51:44;;;;;;;5.83;3.07;;;;;;;-145.18;100.00;46711.19;6181618;23;20016;-73
2022/12/28 17:54:10;;;;;;;8.63;2.77;;;;;;;-145.18;100.00;46705.31;6181821;23;20033;-73
2022/12/28 17:56:37;;;;;;;11.60;3.10;;;;;;;-145.18;100.00;46713.13;6181506;23;20033;-73
2022/12/28 17:59:02;;;;;;;5.20;2.83;;;;;;;-145.18;100.00;46705.31;6181653;23;20246;-73
2022/12/28 18:01:28;;;;;;;5.93;2.77;;;;;;;-145.18;100.00;46697.50;6180046;23;20587;-73
2022/12/28 18:03:54;;;;;;;6.90;2.60;;;;;;;-145.18;100.00;46705.31;6180191;23;20010;-73
2022/12/28 18:06:20;;;;;;;6.93;3.00;;;;;;;-145.18;100.00;46707.28;6179088;23;20020;-73
2022/12/28 18:08:46;;;;;;;5.33;2.70;;;;;;;-145.18;100.00;46709.22;6180512;23;20625;-73
2022/12/28 18:11:11;;;;;;;5.40;3.00;;;;;;;-145.18;100.00;46701.41;6154330;23;20020;-73
2022/12/28 18:13:38;;;;;;;7.07;2.63;;;;;;;-145.18;100.00;46715.09;6181481;23;20008;-72
2022/12/28 18:16:06;;;;;;;5.63;3.77;;;;;;;-145.18;100.00;46705.31;6181012;23;20005;-73
2022/12/28 18:18:32;;;;;;;8.83;3.43;;;;;;;-145.18;100.00;46699.47;6180970;23;20247;-73
2022/12/28 18:21:00;;;;;;;7.17;3.40;;;;;;;-145.18;100.00;46697.50;6181016;23;20314;-73
2022/12/28 18:23:27;;;;;;;6.60;3.23;;;;;;;-145.18;100.00;46701.41;6180616;23;20234;-73
2022/12/28 18:26:19;;;;;;;7.77;3.17;;;;;;;-145.18;100.00;46693.59;6181201;23;20234;-73
2022/12/28 18:28:44;;;;;;;6.17;3.40;;;;;;;-145.18;100.00;46697.50;6180677;23;20733;-73
2022/12/28 18:31:10;;;;;;;10.53;3.77;;;;;;;-145.18;100.00;46705.31;6180603;23;20235;-72
2022/12/28 18:33:37;;;;;;;9.20;4.20;;;;;;;-145.18;100.00;46691.66;6181232;23;20099;-72
2022/12/28 18:36:05;;;;;;;8.67;4.27;;;;;;;-145.18;100.00;46691.66;6156109;23;20423;-73
2022/12/28 18:38:32;;;;;;;7.37;4.43;;;;;;;-145.18;100.00;46699.47;6181353;23;20676;-73
2022/12/28 18:40:57;;;;;;;8.53;3.77;;;;;;;-145.18;100.00;46689.69;6182366;23;20286;-72
2022/12/28 18:43:23;;;;;;;6.57;4.37;;;;;;;-145.18;100.00;46687.75;6175802;23;20243;-73
2022/12/28 18:45:58;;;;;;;8.83;4.53;;;;;;;-145.18;100.00;46689.69;6182344;23;20009;-73
2022/12/28 18:48:24;;;;;;;7.27;4.43;;;;;;;-145.18;100.00;46693.59;6181995;23;20096;-72
2022/12/28 18:50:57;;;;;;;6.87;4.23;;;;;;;-145.18;100.00;46689.69;6182523;23;20227;-73
2022/12/28 18:53:24;;;;;;;9.87;4.27;;;;;;;-145.18;100.00;46683.84;6182787;23;20738;-73
2022/12/28 18:56:00;;;;;;;8.57;3.70;;;;;;;-145.18;100.00;46701.41;6181774;23;20235;-72
2022/12/28 18:58:27;;;;;;;6.10;3.33;;;;;;;-145.18;100.00;46681.88;6182729;23;20257;-73
2022/12/28 19:00:59;;;;;;;5.50;3.80;;;;;;;-145.18;100.00;46697.50;6182206;23;20033;-72
2022/12/28 19:03:24;;;;;;;12.70;4.23;;;;;;;-145.18;100.00;46693.59;6182282;23;20664;-73
2022/12/28 19:05:56;;;;;;;4.97;3.80;;;;;;;-145.18;100.00;46685.78;6182327;23;20317;-73
2022/12/28 19:08:21;;;;;;;11.57;4.10;;;;;;;-145.18;100.00;46689.69;6182476;23;20020;-72
2022/12/28 19:10:48;;;;;;;4.67;3.50;;;;;;;-145.18;100.00;46693.59;6182203;23;20666;-72
2022/12/28 19:13:13;;;;;;;11.57;4.00;;;;;;;-145.18;100.00;46695.56;6183210;23;20012;-72
2022/12/28 19:15:39;;;;;;;6.87;3.73;;;;;;;-145.18;100.00;46691.66;6182659;23;20235;-72
2022/12/28 19:18:04;;;;;;;5.93;4.03;;;;;;;-145.18;100.00;46699.47;6182261;23;20017;-73
2022/12/28 19:20:29;;;;;;;6.10;3.80;;;;;;;-145.18;100.00;46703.38;6181898;23;20001;-73
2022/12/28 19:22:55;;;;;;;5.20;3.40;;;;;;;-145.18;100.00;46705.31;6182646;23;20009;-73
2022/12/28 19:25:20;;;;;;;7.83;3.80;;;;;;;-145.18;100.00;46695.56;6182075;23;20391;-72
2022/12/28 19:27:45;;;;;;;5.77;4.20;;;;;;;-145.18;100.00;46695.56;6182657;23;20017;-73
2022/12/28 19:30:11;;;;;;;7.47;4.10;;;;;;;-145.18;100.00;46703.38;6175928;23;20040;-73
2022/12/28 19:32:37;;;;;;;8.60;4.10;;;;;;;-145.18;100.00;46701.41;6182765;23;20427;-72
2022/12/28 19:35:02;;;;;;;5.87;4.00;;;;;;;-145.18;100.00;46699.47;6182456;23;20009;-73
2022/12/28 19:37:27;;;;;;;8.43;4.83;;;;;;;-145.18;100.00;46693.59;6183112;23;20498;-72
2022/12/28 19:39:53;;;;;;;5.40;4.03;;;;;;;-145.18;100.00;46697.50;6181975;23;20013;-72
2022/12/28 19:42:18;;;;;;;5.40;4.33;;;;;;;-145.18;100.00;46697.50;6182813;23;20048;-73
2022/12/28 19:44:43;;;;;;;5.43;4.27;;;;;;;-145.18;100.00;46695.56;6182412;23;20346;-72
2022/12/28 19:47:09;;;;;;;8.10;4.03;;;;;;;-145.18;100.00;46697.50;6182092;23;20088;-72
2022/12/28 19:49:34;;;;;;;6.50;3.97;;;;;;;-145.18;100.00;46687.75;6156444;23;20044;-73
2022/12/28 19:52:01;;;;;;;6.20;4.03;;;;;;;-145.18;100.00;46695.56;6181902;23;20430;-73
2022/12/28 19:54:26;;;;;;;5.80;4.40;;;;;;;-145.18;100.00;46707.28;6182163;23;20021;-73
2022/12/28 19:56:52;;;;;;;5.47;4.30;;;;;;;-145.18;100.00;46701.41;6155467;23;20231;-73
2022/12/28 19:59:17;;;;;;;8.67;4.33;;;;;;;-145.18;100.00;46703.38;6182784;23;20009;-72
2022/12/28 20:01:42;;;;;;;7.40;3.97;;;;;;;-145.18;100.00;46713.13;6182490;23;20387;-72
2022/12/28 20:04:08;;;;;;;8.03;4.10;;;;;;;-145.18;100.00;46707.28;6182455;23;20005;-73
2022/12/28 20:06:36;;;;;;;5.30;3.57;;;;;;;-145.18;100.00;46705.31;6182503;23;20067;-72
2022/12/28 20:09:02;;;;;;;5.10;3.87;;;;;;;-145.18;100.00;46705.31;6182324;23;20020;-73
2022/12/28 20:11:28;;;;;;;4.93;3.93;;;;;;;-145.18;100.00;46697.50;6182644;23;20223;-72
2022/12/28 20:13:59;;;;;;;5.67;3.67;;;;;;;-145.18;100.00;46713.13;6182454;23;20012;-72
2022/12/28 20:16:26;;;;;;;7.03;4.20;;;;;;;-145.18;100.00;46695.56;6182293;23;20060;-73
2022/12/28 20:18:53;;;;;;;7.27;3.53;;;;;;;-145.18;100.00;46703.38;6182592;23;20258;-72
2022/12/28 20:21:20;;;;;;;6.43;4.03;;;;;;;-145.18;100.00;46711.19;6182276;23;20000;-72
2022/12/28 20:23:47;;;;;;;6.37;4.23;;;;;;;-145.18;100.00;46717.03;6156178;23;20001;-73
2022/12/28 20:26:12;;;;;;;5.17;3.60;;;;;;;-145.18;100.00;46709.22;6182146;23;20309;-73
2022/12/28 20:28:38;;;;;;;4.87;3.30;;;;;;;-145.18;100.00;46703.38;6182439;23;20431;-73
2022/12/28 20:31:05;;;;;;;4.80;3.67;;;;;;;-145.18;100.00;46715.09;6181861;23;20005;-73
2022/12/28 20:33:32;;;;;;;4.93;3.97;;;;;;;-145.18;100.00;46715.09;6182513;23;20005;-73
2022/12/28 20:36:00;;;;;;;7.97;3.40;;;;;;;-145.18;100.00;46709.22;6182043;23;20085;-73
2022/12/28 20:38:26;;;;;;;5.00;3.80;;;;;;;-145.18;100.00;46707.28;6182485;23;20238;-73
2022/12/28 20:41:05;;;;;;;4.30;3.43;;;;;;;-145.18;100.00;46701.41;6181714;23;20230;-73
2022/12/28 20:43:30;;;;;;;6.33;4.00;;;;;;;-145.18;100.00;46715.09;6182493;23;20001;-73
2022/12/28 20:45:56;;;;;;;6.67;3.67;;;;;;;-145.18;100.00;46715.09;6181858;23;20062;-73
2022/12/28 20:48:22;;;;;;;5.23;3.70;;;;;;;-145.18;100.00;46711.19;6181915;23;20096;-73
2022/12/28 20:50:47;;;;;;;6.70;3.17;;;;;;;-145.18;100.00;46717.03;6182143;23;20133;-73
2022/12/28 20:53:13;;;;;;;4.10;3.17;;;;;;;-145.18;100.00;46719.00;6182179;23;20020;-73
2022/12/28 20:55:39;;;;;;;3.77;3.00;;;;;;;-145.18;100.00;46715.09;6181968;23;20040;-72
2022/12/28 20:58:04;;;;;;;4.10;3.00;;;;;;;-145.18;100.00;46717.03;6181717;23;20071;-73
2022/12/28 21:00:30;;;;;;;4.57;3.43;;;;;;;-145.18;100.00;46719.00;6181877;23;20005;-72
2022/12/28 21:02:55;;;;;;;4.63;2.70;;;;;;;-145.18;100.00;46720.94;6181613;23;20009;-73
2022/12/28 21:05:21;;;;;;;6.40;3.20;;;;;;;-145.18;100.00;46722.91;6181969;23;20096;-73
2022/12/28 21:07:46;;;;;;;6.97;2.77;;;;;;;-145.18;100.00;46720.94;6182143;23;20009;-73
2022/12/28 21:10:11;;;;;;;4.73;3.23;;;;;;;-145.18;100.00;46722.91;6182000;23;20013;-73
2022/12/28 21:12:37;;;;;;;3.43;2.90;;;;;;;-145.18;100.00;46717.03;6181736;23;20044;-73
2022/12/28 21:15:02;;;;;;;3.93;2.30;;;;;;;-145.18;100.00;46719.00;6182069;23;20040;-73
2022/12/28 21:17:28;;;;;;;4.90;2.83;;;;;;;-145.18;100.00;46722.91;6181761;23;20024;-73
2022/12/28 21:19:53;;;;;;;4.00;2.80;;;;;;;-145.18;100.00;46717.03;6181738;23;20334;-73
2022/12/28 21:22:19;;;;;;;3.60;2.90;;;;;;;-145.18;100.00;46720.94;6181977;23;20482;-73